sensor_id;sensor_type;location;lat;lon;timestamp;P1;durP1;ratioP1;P2;durP2;ratioP2
74612;SDS011;63119;51.788;8.824;2023-11-21T00:01:57;17.27;;;8.80;;
74612;SDS011;63119;51.788;8.824;2023-11-21T00:04:23;18.75;;;8.15;;
74612;SDS011;63119;51.788;8.824;2023-11-21T00:06:48;18.33;;;7.78;;
74612;SDS011;63119;51.788;8.824;2023-11-21T00:09:14;16.50;;;8.53;;
74612;SDS011;63119;51.788;8.824;2023-11-21T00:11:43;17.13;;;8.50;;
74612;SDS011;63119;51.788;8.824;2023-11-21T00:14:09;22.60;;;9.68;;
74612;SDS011;63119;51.788;8.824;2023-11-21T00:16:35;16.55;;;7.45;;
74612;SDS011;63119;51.788;8.824;2023-11-21T00:19:00;18.17;;;8.20;;
74612;SDS011;63119;51.788;8.824;2023-11-21T00:21:25;17.10;;;9.50;;
74612;SDS011;63119;51.788;8.824;2023-11-21T00:23:50;19.93;;;8.53;;
74612;SDS011;63119;51.788;8.824;2023-11-21T00:26:16;14.43;;;7.15;;
74612;SDS011;63119;51.788;8.824;2023-11-21T00:28:41;16.98;;;7.22;;
74612;SDS011;63119;51.788;8.824;2023-11-21T00:31:07;15.10;;;7.30;;
74612;SDS011;63119;51.788;8.824;2023-11-21T00:33:32;13.97;;;6.90;;
74612;SDS011;63119;51.788;8.824;2023-11-21T00:35:57;13.90;;;7.47;;
74612;SDS011;63119;51.788;8.824;2023-11-21T00:38:22;17.33;;;7.47;;
74612;SDS011;63119;51.788;8.824;2023-11-21T00:40:48;13.03;;;6.20;;
74612;SDS011;63119;51.788;8.824;2023-11-21T00:43:13;16.03;;;7.20;;
74612;SDS011;63119;51.788;8.824;2023-11-21T00:45:38;16.70;;;7.50;;
74612;SDS011;63119;51.788;8.824;2023-11-21T00:48:05;13.02;;;6.32;;
74612;SDS011;63119;51.788;8.824;2023-11-21T00:50:30;16.70;;;7.43;;
74612;SDS011;63119;51.788;8.824;2023-11-21T00:52:56;17.08;;;7.97;;
74612;SDS011;63119;51.788;8.824;2023-11-21T00:55:21;19.80;;;8.63;;
74612;SDS011;63119;51.788;8.824;2023-11-21T00:57:47;22.70;;;9.60;;
74612;SDS011;63119;51.788;8.824;2023-11-21T01:00:13;19.27;;;9.32;;
74612;SDS011;63119;51.788;8.824;2023-11-21T01:02:41;21.83;;;8.32;;
74612;SDS011;63119;51.788;8.824;2023-11-21T01:05:08;20.60;;;8.38;;
74612;SDS011;63119;51.788;8.824;2023-11-21T01:07:33;19.20;;;8.50;;
74612;SDS011;63119;51.788;8.824;2023-11-21T01:09:59;16.67;;;7.97;;
74612;SDS011;63119;51.788;8.824;2023-11-21T01:12:24;17.60;;;8.20;;
74612;SDS011;63119;51.788;8.824;2023-11-21T01:14:50;15.38;;;8.00;;
74612;SDS011;63119;51.788;8.824;2023-11-21T01:17:15;17.77;;;7.60;;
74612;SDS011;63119;51.788;8.824;2023-11-21T01:19:41;14.60;;;7.80;;
74612;SDS011;63119;51.788;8.824;2023-11-21T01:22:07;15.43;;;7.83;;
74612;SDS011;63119;51.788;8.824;2023-11-21T01:24:32;16.87;;;8.13;;
74612;SDS011;63119;51.788;8.824;2023-11-21T01:26:57;14.50;;;7.40;;
74612;SDS011;63119;51.788;8.824;2023-11-21T01:29:22;18.47;;;7.77;;
74612;SDS011;63119;51.788;8.824;2023-11-21T01:31:48;16.10;;;7.40;;
74612;SDS011;63119;51.788;8.824;2023-11-21T01:34:13;14.53;;;7.63;;
74612;SDS011;63119;51.788;8.824;2023-11-21T01:36:39;14.07;;;6.85;;
74612;SDS011;63119;51.788;8.824;2023-11-21T01:39:04;11.60;;;6.73;;
74612;SDS011;63119;51.788;8.824;2023-11-21T01:41:33;15.68;;;7.13;;
74612;SDS011;63119;51.788;8.824;2023-11-21T01:44:00;14.20;;;7.57;;
74612;SDS011;63119;51.788;8.824;2023-11-21T01:46:25;13.10;;;7.10;;
74612;SDS011;63119;51.788;8.824;2023-11-21T01:48:51;15.10;;;6.97;;
74612;SDS011;63119;51.788;8.824;2023-11-21T01:51:18;16.15;;;7.90;;
74612;SDS011;63119;51.788;8.824;2023-11-21T01:53:43;17.50;;;7.25;;
74612;SDS011;63119;51.788;8.824;2023-11-21T01:56:11;14.98;;;7.03;;
74612;SDS011;63119;51.788;8.824;2023-11-21T01:58:37;18.13;;;7.78;;
74612;SDS011;63119;51.788;8.824;2023-11-21T02:01:04;13.15;;;6.60;;
74612;SDS011;63119;51.788;8.824;2023-11-21T02:03:30;15.15;;;7.15;;
74612;SDS011;63119;51.788;8.824;2023-11-21T02:05:56;13.93;;;6.43;;
74612;SDS011;63119;51.788;8.824;2023-11-21T02:08:21;13.43;;;6.73;;
74612;SDS011;63119;51.788;8.824;2023-11-21T02:10:46;14.90;;;6.83;;
74612;SDS011;63119;51.788;8.824;2023-11-21T02:13:12;14.85;;;7.38;;
74612;SDS011;63119;51.788;8.824;2023-11-21T02:15:38;14.38;;;6.47;;
74612;SDS011;63119;51.788;8.824;2023-11-21T02:18:03;13.27;;;6.63;;
74612;SDS011;63119;51.788;8.824;2023-11-21T02:20:31;14.70;;;7.40;;
74612;SDS011;63119;51.788;8.824;2023-11-21T02:22:59;14.77;;;6.70;;
74612;SDS011;63119;51.788;8.824;2023-11-21T02:25:30;15.38;;;6.60;;
74612;SDS011;63119;51.788;8.824;2023-11-21T02:27:57;16.13;;;6.75;;
74612;SDS011;63119;51.788;8.824;2023-11-21T02:30:23;14.00;;;6.78;;
74612;SDS011;63119;51.788;8.824;2023-11-21T02:32:58;10.88;;;6.47;;
74612;SDS011;63119;51.788;8.824;2023-11-21T02:35:23;13.45;;;6.68;;
74612;SDS011;63119;51.788;8.824;2023-11-21T02:37:51;11.45;;;6.45;;
74612;SDS011;63119;51.788;8.824;2023-11-21T02:40:16;12.48;;;6.65;;
74612;SDS011;63119;51.788;8.824;2023-11-21T02:42:43;12.80;;;7.03;;
74612;SDS011;63119;51.788;8.824;2023-11-21T02:45:12;12.10;;;6.80;;
74612;SDS011;63119;51.788;8.824;2023-11-21T02:47:39;14.38;;;7.22;;
74612;SDS011;63119;51.788;8.824;2023-11-21T02:50:04;11.88;;;6.35;;
74612;SDS011;63119;51.788;8.824;2023-11-21T02:52:33;14.48;;;6.50;;
74612;SDS011;63119;51.788;8.824;2023-11-21T02:54:58;12.60;;;7.13;;
74612;SDS011;63119;51.788;8.824;2023-11-21T02:57:24;15.27;;;6.35;;
74612;SDS011;63119;51.788;8.824;2023-11-21T02:59:49;14.47;;;7.33;;
74612;SDS011;63119;51.788;8.824;2023-11-21T03:02:15;16.15;;;7.03;;
74612;SDS011;63119;51.788;8.824;2023-11-21T03:04:40;14.65;;;8.20;;
74612;SDS011;63119;51.788;8.824;2023-11-21T03:07:07;14.63;;;7.15;;
74612;SDS011;63119;51.788;8.824;2023-11-21T03:09:33;20.45;;;8.23;;
74612;SDS011;63119;51.788;8.824;2023-11-21T03:11:58;16.37;;;8.23;;
74612;SDS011;63119;51.788;8.824;2023-11-21T03:14:23;19.10;;;8.73;;
74612;SDS011;63119;51.788;8.824;2023-11-21T03:16:49;18.40;;;8.15;;
74612;SDS011;63119;51.788;8.824;2023-11-21T03:19:14;16.87;;;7.90;;
74612;SDS011;63119;51.788;8.824;2023-11-21T03:21:40;18.20;;;7.40;;
74612;SDS011;63119;51.788;8.824;2023-11-21T03:24:05;13.60;;;6.07;;
74612;SDS011;63119;51.788;8.824;2023-11-21T03:26:32;14.60;;;6.10;;
74612;SDS011;63119;51.788;8.824;2023-11-21T03:28:57;12.97;;;5.70;;
74612;SDS011;63119;51.788;8.824;2023-11-21T03:31:22;13.30;;;6.17;;
74612;SDS011;63119;51.788;8.824;2023-11-21T03:33:48;11.73;;;6.20;;
74612;SDS011;63119;51.788;8.824;2023-11-21T03:36:13;13.30;;;5.93;;
74612;SDS011;63119;51.788;8.824;2023-11-21T03:38:40;15.73;;;6.85;;
74612;SDS011;63119;51.788;8.824;2023-11-21T03:41:06;14.60;;;5.78;;
74612;SDS011;63119;51.788;8.824;2023-11-21T03:43:35;14.65;;;6.65;;
74612;SDS011;63119;51.788;8.824;2023-11-21T03:46:00;19.60;;;7.55;;
74612;SDS011;63119;51.788;8.824;2023-11-21T03:48:25;19.63;;;6.82;;
74612;SDS011;63119;51.788;8.824;2023-11-21T03:50:51;18.00;;;8.73;;
74612;SDS011;63119;51.788;8.824;2023-11-21T03:53:16;18.90;;;7.63;;
74612;SDS011;63119;51.788;8.824;2023-11-21T03:55:41;20.90;;;8.63;;
74612;SDS011;63119;51.788;8.824;2023-11-21T03:58:06;21.07;;;7.97;;
74612;SDS011;63119;51.788;8.824;2023-11-21T04:00:32;18.70;;;8.20;;
74612;SDS011;63119;51.788;8.824;2023-11-21T04:02:57;20.33;;;8.13;;
74612;SDS011;63119;51.788;8.824;2023-11-21T04:05:22;23.35;;;8.18;;
74612;SDS011;63119;51.788;8.824;2023-11-21T04:07:49;16.70;;;7.88;;
74612;SDS011;63119;51.788;8.824;2023-11-21T04:10:15;21.60;;;7.60;;
74612;SDS011;63119;51.788;8.824;2023-11-21T04:12:40;18.33;;;8.68;;
74612;SDS011;63119;51.788;8.824;2023-11-21T04:15:06;17.60;;;8.23;;
74612;SDS011;63119;51.788;8.824;2023-11-21T04:17:33;22.48;;;8.10;;
74612;SDS011;63119;51.788;8.824;2023-11-21T04:19:58;22.33;;;9.40;;
74612;SDS011;63119;51.788;8.824;2023-11-21T04:22:24;18.73;;;8.70;;
74612;SDS011;63119;51.788;8.824;2023-11-21T04:24:49;23.43;;;8.60;;
74612;SDS011;63119;51.788;8.824;2023-11-21T04:27:14;18.97;;;8.43;;
74612;SDS011;63119;51.788;8.824;2023-11-21T04:29:39;21.20;;;8.87;;
74612;SDS011;63119;51.788;8.824;2023-11-21T04:32:06;18.20;;;8.07;;
74612;SDS011;63119;51.788;8.824;2023-11-21T04:34:31;24.65;;;10.35;;
74612;SDS011;63119;51.788;8.824;2023-11-21T04:36:57;22.20;;;10.43;;
74612;SDS011;63119;51.788;8.824;2023-11-21T04:39:22;20.42;;;9.25;;
74612;SDS011;63119;51.788;8.824;2023-11-21T04:41:48;21.58;;;9.63;;
74612;SDS011;63119;51.788;8.824;2023-11-21T04:44:13;23.83;;;9.57;;
74612;SDS011;63119;51.788;8.824;2023-11-21T04:46:39;25.67;;;11.60;;
74612;SDS011;63119;51.788;8.824;2023-11-21T04:49:04;33.60;;;12.53;;
74612;SDS011;63119;51.788;8.824;2023-11-21T04:51:29;29.55;;;12.00;;
74612;SDS011;63119;51.788;8.824;2023-11-21T04:53:57;25.70;;;11.45;;
74612;SDS011;63119;51.788;8.824;2023-11-21T04:56:22;27.57;;;11.07;;
74612;SDS011;63119;51.788;8.824;2023-11-21T04:58:47;23.60;;;11.47;;
74612;SDS011;63119;51.788;8.824;2023-11-21T05:01:12;29.57;;;10.87;;
74612;SDS011;63119;51.788;8.824;2023-11-21T05:03:38;22.63;;;9.88;;
74612;SDS011;63119;51.788;8.824;2023-11-21T05:06:03;25.33;;;10.57;;
74612;SDS011;63119;51.788;8.824;2023-11-21T05:08:30;25.35;;;10.10;;
74612;SDS011;63119;51.788;8.824;2023-11-21T05:10:55;24.70;;;10.20;;
74612;SDS011;63119;51.788;8.824;2023-11-21T05:13:21;23.23;;;10.02;;
74612;SDS011;63119;51.788;8.824;2023-11-21T05:15:47;21.42;;;9.82;;
74612;SDS011;63119;51.788;8.824;2023-11-21T05:18:12;23.50;;;9.90;;
74612;SDS011;63119;51.788;8.824;2023-11-21T05:20:38;19.40;;;9.90;;
74612;SDS011;63119;51.788;8.824;2023-11-21T05:23:05;25.52;;;9.32;;
74612;SDS011;63119;51.788;8.824;2023-11-21T05:25:31;23.20;;;9.73;;
74612;SDS011;63119;51.788;8.824;2023-11-21T05:27:57;23.10;;;9.77;;
74612;SDS011;63119;51.788;8.824;2023-11-21T05:30:26;25.60;;;9.63;;
74612;SDS011;63119;51.788;8.824;2023-11-21T05:32:51;26.40;;;10.90;;
74612;SDS011;63119;51.788;8.824;2023-11-21T05:35:16;23.90;;;10.17;;
74612;SDS011;63119;51.788;8.824;2023-11-21T05:37:42;24.80;;;8.52;;
74612;SDS011;63119;51.788;8.824;2023-11-21T05:40:08;26.77;;;10.18;;
74612;SDS011;63119;51.788;8.824;2023-11-21T05:42:35;23.95;;;9.13;;
74612;SDS011;63119;51.788;8.824;2023-11-21T05:45:01;22.67;;;9.70;;
74612;SDS011;63119;51.788;8.824;2023-11-21T05:47:39;22.42;;;9.38;;
74612;SDS011;63119;51.788;8.824;2023-11-21T05:50:09;25.77;;;10.48;;
74612;SDS011;63119;51.788;8.824;2023-11-21T05:52:48;23.58;;;10.25;;
74612;SDS011;63119;51.788;8.824;2023-11-21T05:55:14;28.23;;;10.73;;
74612;SDS011;63119;51.788;8.824;2023-11-21T05:57:40;25.33;;;10.00;;
74612;SDS011;63119;51.788;8.824;2023-11-21T06:00:13;30.95;;;10.82;;
74612;SDS011;63119;51.788;8.824;2023-11-21T06:05:12;25.02;;;10.25;;
74612;SDS011;63119;51.788;8.824;2023-11-21T06:07:37;29.27;;;11.73;;
74612;SDS011;63119;51.788;8.824;2023-11-21T06:10:04;29.02;;;11.25;;
74612;SDS011;63119;51.788;8.824;2023-11-21T06:12:36;21.23;;;11.57;;
74612;SDS011;63119;51.788;8.824;2023-11-21T06:15:05;26.83;;;10.57;;
74612;SDS011;63119;51.788;8.824;2023-11-21T06:17:33;26.52;;;11.23;;
74612;SDS011;63119;51.788;8.824;2023-11-21T06:22:28;21.00;;;9.45;;
74612;SDS011;63119;51.788;8.824;2023-11-21T06:24:55;21.45;;;10.00;;
74612;SDS011;63119;51.788;8.824;2023-11-21T06:27:20;22.17;;;9.30;;
74612;SDS011;63119;51.788;8.824;2023-11-21T06:29:46;25.30;;;10.10;;
74612;SDS011;63119;51.788;8.824;2023-11-21T06:32:11;22.50;;;9.35;;
74612;SDS011;63119;51.788;8.824;2023-11-21T06:34:37;21.45;;;9.75;;
74612;SDS011;63119;51.788;8.824;2023-11-21T06:37:03;22.15;;;9.20;;
74612;SDS011;63119;51.788;8.824;2023-11-21T06:39:28;23.05;;;9.35;;
74612;SDS011;63119;51.788;8.824;2023-11-21T06:41:53;23.53;;;10.90;;
74612;SDS011;63119;51.788;8.824;2023-11-21T06:44:19;25.58;;;11.40;;
74612;SDS011;63119;51.788;8.824;2023-11-21T06:46:44;23.63;;;10.52;;
74612;SDS011;63119;51.788;8.824;2023-11-21T06:49:10;25.83;;;10.30;;
74612;SDS011;63119;51.788;8.824;2023-11-21T06:51:36;24.55;;;10.88;;
74612;SDS011;63119;51.788;8.824;2023-11-21T06:54:01;24.07;;;9.63;;
74612;SDS011;63119;51.788;8.824;2023-11-21T06:56:26;24.80;;;10.13;;
74612;SDS011;63119;51.788;8.824;2023-11-21T06:58:51;17.97;;;9.13;;
74612;SDS011;63119;51.788;8.824;2023-11-21T07:01:20;24.38;;;9.38;;
74612;SDS011;63119;51.788;8.824;2023-11-21T07:03:45;24.60;;;9.77;;
74612;SDS011;63119;51.788;8.824;2023-11-21T07:06:11;20.47;;;9.97;;
74612;SDS011;63119;51.788;8.824;2023-11-21T07:08:36;26.97;;;11.50;;
74612;SDS011;63119;51.788;8.824;2023-11-21T07:11:02;22.70;;;9.75;;
74612;SDS011;63119;51.788;8.824;2023-11-21T07:13:28;22.80;;;10.35;;
74612;SDS011;63119;51.788;8.824;2023-11-21T07:15:54;21.02;;;10.55;;
74612;SDS011;63119;51.788;8.824;2023-11-21T07:18:19;27.60;;;11.17;;
74612;SDS011;63119;51.788;8.824;2023-11-21T07:20:44;24.77;;;11.53;;
74612;SDS011;63119;51.788;8.824;2023-11-21T07:23:10;23.53;;;10.07;;
74612;SDS011;63119;51.788;8.824;2023-11-21T07:25:35;27.38;;;11.20;;
74612;SDS011;63119;51.788;8.824;2023-11-21T07:28:01;23.52;;;10.68;;
74612;SDS011;63119;51.788;8.824;2023-11-21T07:30:26;23.27;;;11.00;;
74612;SDS011;63119;51.788;8.824;2023-11-21T07:32:52;23.38;;;10.90;;
74612;SDS011;63119;51.788;8.824;2023-11-21T07:35:17;25.70;;;10.90;;
74612;SDS011;63119;51.788;8.824;2023-11-21T07:37:42;27.83;;;10.57;;
74612;SDS011;63119;51.788;8.824;2023-11-21T07:40:08;26.00;;;10.80;;
74612;SDS011;63119;51.788;8.824;2023-11-21T07:42:34;25.20;;;10.73;;
74612;SDS011;63119;51.788;8.824;2023-11-21T07:44:59;23.83;;;10.23;;
74612;SDS011;63119;51.788;8.824;2023-11-21T07:47:25;22.27;;;10.85;;
74612;SDS011;63119;51.788;8.824;2023-11-21T07:49:52;26.13;;;12.40;;
74612;SDS011;63119;51.788;8.824;2023-11-21T07:52:17;25.92;;;11.07;;
74612;SDS011;63119;51.788;8.824;2023-11-21T07:54:43;23.30;;;11.57;;
74612;SDS011;63119;51.788;8.824;2023-11-21T07:57:09;29.70;;;11.20;;
74612;SDS011;63119;51.788;8.824;2023-11-21T07:59:36;28.00;;;13.10;;
74612;SDS011;63119;51.788;8.824;2023-11-21T08:02:01;22.77;;;11.00;;
74612;SDS011;63119;51.788;8.824;2023-11-21T08:04:27;26.55;;;13.15;;
74612;SDS011;63119;51.788;8.824;2023-11-21T08:06:52;24.00;;;12.10;;
74612;SDS011;63119;51.788;8.824;2023-11-21T08:09:17;26.60;;;12.30;;
74612;SDS011;63119;51.788;8.824;2023-11-21T08:11:43;24.97;;;12.20;;
74612;SDS011;63119;51.788;8.824;2023-11-21T08:14:08;23.40;;;11.23;;
74612;SDS011;63119;51.788;8.824;2023-11-21T08:16:33;23.17;;;11.40;;
74612;SDS011;63119;51.788;8.824;2023-11-21T08:18:58;23.50;;;12.07;;
74612;SDS011;63119;51.788;8.824;2023-11-21T08:21:24;23.23;;;11.93;;
74612;SDS011;63119;51.788;8.824;2023-11-21T08:23:49;23.67;;;13.07;;
74612;SDS011;63119;51.788;8.824;2023-11-21T08:26:18;24.45;;;12.13;;
74612;SDS011;63119;51.788;8.824;2023-11-21T08:28:44;27.52;;;12.77;;
74612;SDS011;63119;51.788;8.824;2023-11-21T08:31:09;21.03;;;11.77;;
74612;SDS011;63119;51.788;8.824;2023-11-21T08:33:35;21.38;;;12.18;;
74612;SDS011;63119;51.788;8.824;2023-11-21T08:36:00;22.87;;;11.43;;
74612;SDS011;63119;51.788;8.824;2023-11-21T08:38:26;22.83;;;12.40;;
74612;SDS011;63119;51.788;8.824;2023-11-21T08:40:53;20.95;;;11.73;;
74612;SDS011;63119;51.788;8.824;2023-11-21T08:43:19;21.95;;;12.10;;
74612;SDS011;63119;51.788;8.824;2023-11-21T08:45:44;22.13;;;12.60;;
74612;SDS011;63119;51.788;8.824;2023-11-21T08:48:10;21.50;;;11.55;;
74612;SDS011;63119;51.788;8.824;2023-11-21T08:50:36;22.42;;;11.35;;
74612;SDS011;63119;51.788;8.824;2023-11-21T08:53:02;18.45;;;10.88;;
74612;SDS011;63119;51.788;8.824;2023-11-21T08:55:27;20.40;;;11.17;;
74612;SDS011;63119;51.788;8.824;2023-11-21T08:57:53;17.90;;;10.73;;
74612;SDS011;63119;51.788;8.824;2023-11-21T09:00:18;21.23;;;10.83;;
74612;SDS011;63119;51.788;8.824;2023-11-21T09:02:44;20.13;;;11.77;;
74612;SDS011;63119;51.788;8.824;2023-11-21T09:05:13;21.05;;;11.25;;
74612;SDS011;63119;51.788;8.824;2023-11-21T09:07:39;20.10;;;11.07;;
74612;SDS011;63119;51.788;8.824;2023-11-21T09:10:06;18.83;;;11.57;;
74612;SDS011;63119;51.788;8.824;2023-11-21T09:12:32;21.10;;;11.82;;
74612;SDS011;63119;51.788;8.824;2023-11-21T09:14:58;22.52;;;10.93;;
74612;SDS011;63119;51.788;8.824;2023-11-21T09:17:23;17.27;;;10.30;;
74612;SDS011;63119;51.788;8.824;2023-11-21T09:19:49;21.38;;;11.95;;
74612;SDS011;63119;51.788;8.824;2023-11-21T09:22:17;22.45;;;11.75;;
74612;SDS011;63119;51.788;8.824;2023-11-21T09:24:42;20.80;;;11.65;;
74612;SDS011;63119;51.788;8.824;2023-11-21T09:27:08;23.80;;;12.77;;
74612;SDS011;63119;51.788;8.824;2023-11-21T09:29:34;24.35;;;13.40;;
74612;SDS011;63119;51.788;8.824;2023-11-21T09:32:00;22.63;;;13.23;;
74612;SDS011;63119;51.788;8.824;2023-11-21T09:34:26;23.55;;;13.18;;
74612;SDS011;63119;51.788;8.824;2023-11-21T09:36:51;24.90;;;14.10;;
74612;SDS011;63119;51.788;8.824;2023-11-21T09:39:17;28.70;;;14.83;;
74612;SDS011;63119;51.788;8.824;2023-11-21T09:41:52;24.02;;;13.65;;
74612;SDS011;63119;51.788;8.824;2023-11-21T09:44:28;23.52;;;14.13;;
74612;SDS011;63119;51.788;8.824;2023-11-21T09:47:00;26.88;;;14.18;;
74612;SDS011;63119;51.788;8.824;2023-11-21T09:49:26;26.17;;;14.07;;
74612;SDS011;63119;51.788;8.824;2023-11-21T09:51:54;25.88;;;14.15;;
74612;SDS011;63119;51.788;8.824;2023-11-21T09:54:22;25.75;;;15.00;;
74612;SDS011;63119;51.788;8.824;2023-11-21T09:56:47;24.98;;;13.10;;
74612;SDS011;63119;51.788;8.824;2023-11-21T09:59:15;28.35;;;15.05;;
74612;SDS011;63119;51.788;8.824;2023-11-21T10:01:41;25.08;;;14.82;;
74612;SDS011;63119;51.788;8.824;2023-11-21T10:04:10;28.30;;;14.15;;
74612;SDS011;63119;51.788;8.824;2023-11-21T10:06:39;28.25;;;14.27;;
74612;SDS011;63119;51.788;8.824;2023-11-21T10:09:06;23.42;;;13.65;;
74612;SDS011;63119;51.788;8.824;2023-11-21T10:11:38;27.75;;;15.25;;
74612;SDS011;63119;51.788;8.824;2023-11-21T10:14:06;23.17;;;13.52;;
74612;SDS011;63119;51.788;8.824;2023-11-21T10:16:35;27.08;;;15.40;;
74612;SDS011;63119;51.788;8.824;2023-11-21T10:19:02;26.15;;;14.95;;
74612;SDS011;63119;51.788;8.824;2023-11-21T10:21:29;25.75;;;15.07;;
74612;SDS011;63119;51.788;8.824;2023-11-21T10:23:55;25.58;;;13.57;;
74612;SDS011;63119;51.788;8.824;2023-11-21T10:26:20;24.25;;;13.27;;
74612;SDS011;63119;51.788;8.824;2023-11-21T10:28:55;29.40;;;15.27;;
74612;SDS011;63119;51.788;8.824;2023-11-21T10:33:49;27.55;;;13.88;;
74612;SDS011;63119;51.788;8.824;2023-11-21T10:36:19;27.20;;;13.68;;
74612;SDS011;63119;51.788;8.824;2023-11-21T10:38:50;21.63;;;12.50;;
74612;SDS011;63119;51.788;8.824;2023-11-21T10:41:18;24.92;;;13.50;;
74612;SDS011;63119;51.788;8.824;2023-11-21T10:43:43;25.95;;;14.48;;
74612;SDS011;63119;51.788;8.824;2023-11-21T10:46:09;24.13;;;12.40;;
74612;SDS011;63119;51.788;8.824;2023-11-21T10:48:34;25.77;;;12.80;;
74612;SDS011;63119;51.788;8.824;2023-11-21T10:51:00;23.42;;;12.25;;
74612;SDS011;63119;51.788;8.824;2023-11-21T10:53:32;26.17;;;13.02;;
74612;SDS011;63119;51.788;8.824;2023-11-21T10:56:05;25.87;;;12.63;;
74612;SDS011;63119;51.788;8.824;2023-11-21T10:58:35;23.40;;;12.70;;
74612;SDS011;63119;51.788;8.824;2023-11-21T11:01:02;25.35;;;13.18;;
74612;SDS011;63119;51.788;8.824;2023-11-21T11:03:31;22.67;;;12.07;;
74612;SDS011;63119;51.788;8.824;2023-11-21T11:05:58;20.33;;;10.70;;
74612;SDS011;63119;51.788;8.824;2023-11-21T11:08:24;22.33;;;12.18;;
74612;SDS011;63119;51.788;8.824;2023-11-21T11:10:52;24.60;;;12.23;;
74612;SDS011;63119;51.788;8.824;2023-11-21T11:13:18;27.50;;;12.43;;
74612;SDS011;63119;51.788;8.824;2023-11-21T11:15:44;28.45;;;13.75;;
74612;SDS011;63119;51.788;8.824;2023-11-21T11:18:12;22.30;;;12.05;;
74612;SDS011;63119;51.788;8.824;2023-11-21T11:20:38;19.35;;;10.88;;
74612;SDS011;63119;51.788;8.824;2023-11-21T11:26:02;19.48;;;11.18;;
74612;SDS011;63119;51.788;8.824;2023-11-21T11:34:20;12.85;;;7.05;;
74612;SDS011;63119;51.788;8.824;2023-11-21T11:36:54;9.90;;;4.88;;
74612;SDS011;63119;51.788;8.824;2023-11-21T11:39:35;10.55;;;5.20;;
74612;SDS011;63119;51.788;8.824;2023-11-21T11:42:02;8.80;;;4.30;;
74612;SDS011;63119;51.788;8.824;2023-11-21T11:47:30;8.02;;;4.30;;
74612;SDS011;63119;51.788;8.824;2023-11-21T11:50:06;10.25;;;4.55;;
74612;SDS011;63119;51.788;8.824;2023-11-21T11:55:10;6.32;;;4.25;;
74612;SDS011;63119;51.788;8.824;2023-11-21T11:57:42;6.53;;;3.67;;
74612;SDS011;63119;51.788;8.824;2023-11-21T12:02:40;7.60;;;3.67;;
74612;SDS011;63119;51.788;8.824;2023-11-21T12:05:08;7.68;;;3.95;;
74612;SDS011;63119;51.788;8.824;2023-11-21T12:10:14;6.30;;;3.88;;
74612;SDS011;63119;51.788;8.824;2023-11-21T12:12:44;4.05;;;2.78;;
74612;SDS011;63119;51.788;8.824;2023-11-21T12:15:11;3.03;;;1.92;;
74612;SDS011;63119;51.788;8.824;2023-11-21T12:17:37;3.70;;;1.90;;
74612;SDS011;63119;51.788;8.824;2023-11-21T12:20:04;2.38;;;1.63;;
74612;SDS011;63119;51.788;8.824;2023-11-21T12:22:32;3.67;;;1.70;;
74612;SDS011;63119;51.788;8.824;2023-11-21T12:24:57;2.33;;;1.35;;
74612;SDS011;63119;51.788;8.824;2023-11-21T12:27:23;3.20;;;1.80;;
74612;SDS011;63119;51.788;8.824;2023-11-21T12:29:48;3.67;;;1.83;;
74612;SDS011;63119;51.788;8.824;2023-11-21T12:32:13;3.53;;;2.13;;
74612;SDS011;63119;51.788;8.824;2023-11-21T12:34:42;4.03;;;2.40;;
74612;SDS011;63119;51.788;8.824;2023-11-21T12:37:08;4.60;;;2.60;;
74612;SDS011;63119;51.788;8.824;2023-11-21T12:39:33;4.33;;;2.80;;
74612;SDS011;63119;51.788;8.824;2023-11-21T12:41:58;5.60;;;3.57;;
74612;SDS011;63119;51.788;8.824;2023-11-21T12:44:25;7.22;;;3.75;;
74612;SDS011;63119;51.788;8.824;2023-11-21T12:46:50;6.77;;;3.50;;
74612;SDS011;63119;51.788;8.824;2023-11-21T12:49:17;6.70;;;4.30;;
74612;SDS011;63119;51.788;8.824;2023-11-21T12:51:44;7.82;;;4.45;;
74612;SDS011;63119;51.788;8.824;2023-11-21T12:54:11;6.78;;;4.18;;
74612;SDS011;63119;51.788;8.824;2023-11-21T12:56:40;5.68;;;3.40;;
74612;SDS011;63119;51.788;8.824;2023-11-21T12:59:06;8.25;;;4.80;;
74612;SDS011;63119;51.788;8.824;2023-11-21T13:01:31;11.17;;;4.07;;
74612;SDS011;63119;51.788;8.824;2023-11-21T13:03:57;6.97;;;4.22;;
74612;SDS011;63119;51.788;8.824;2023-11-21T13:06:27;9.48;;;5.00;;
74612;SDS011;63119;51.788;8.824;2023-11-21T13:08:54;10.60;;;5.32;;
74612;SDS011;63119;51.788;8.824;2023-11-21T13:11:22;7.40;;;4.28;;
74612;SDS011;63119;51.788;8.824;2023-11-21T13:13:47;8.85;;;4.32;;
74612;SDS011;63119;51.788;8.824;2023-11-21T13:16:18;7.57;;;4.05;;
74612;SDS011;63119;51.788;8.824;2023-11-21T13:18:45;5.93;;;3.50;;
74612;SDS011;63119;51.788;8.824;2023-11-21T13:21:11;7.03;;;3.97;;
74612;SDS011;63119;51.788;8.824;2023-11-21T13:23:40;7.45;;;4.00;;
74612;SDS011;63119;51.788;8.824;2023-11-21T13:26:07;7.32;;;4.10;;
74612;SDS011;63119;51.788;8.824;2023-11-21T13:28:34;9.43;;;4.40;;
74612;SDS011;63119;51.788;8.824;2023-11-21T13:31:01;8.93;;;4.38;;
74612;SDS011;63119;51.788;8.824;2023-11-21T13:33:46;8.13;;;4.85;;
74612;SDS011;63119;51.788;8.824;2023-11-21T13:36:16;7.75;;;4.45;;
74612;SDS011;63119;51.788;8.824;2023-11-21T13:38:47;9.20;;;4.45;;
74612;SDS011;63119;51.788;8.824;2023-11-21T13:41:12;11.27;;;5.35;;
74612;SDS011;63119;51.788;8.824;2023-11-21T13:43:39;7.95;;;4.43;;
74612;SDS011;63119;51.788;8.824;2023-11-21T13:46:04;9.55;;;5.00;;
74612;SDS011;63119;51.788;8.824;2023-11-21T13:48:38;12.10;;;6.63;;
74612;SDS011;63119;51.788;8.824;2023-11-21T13:51:08;8.88;;;4.95;;
74612;SDS011;63119;51.788;8.824;2023-11-21T13:53:41;10.10;;;6.00;;
74612;SDS011;63119;51.788;8.824;2023-11-21T13:56:07;10.68;;;5.65;;
74612;SDS011;63119;51.788;8.824;2023-11-21T13:58:33;9.13;;;5.15;;
74612;SDS011;63119;51.788;8.824;2023-11-21T14:01:17;10.70;;;5.47;;
74612;SDS011;63119;51.788;8.824;2023-11-21T14:03:56;10.75;;;4.85;;
74612;SDS011;63119;51.788;8.824;2023-11-21T14:06:27;6.78;;;4.18;;
74612;SDS011;63119;51.788;8.824;2023-11-21T14:08:59;8.63;;;4.03;;
74612;SDS011;63119;51.788;8.824;2023-11-21T14:11:30;9.35;;;5.32;;
74612;SDS011;63119;51.788;8.824;2023-11-21T14:13:55;11.27;;;5.13;;
74612;SDS011;63119;51.788;8.824;2023-11-21T14:16:20;8.43;;;4.70;;
74612;SDS011;63119;51.788;8.824;2023-11-21T14:18:46;7.18;;;4.45;;
74612;SDS011;63119;51.788;8.824;2023-11-21T14:21:23;8.45;;;4.75;;
74612;SDS011;63119;51.788;8.824;2023-11-21T14:23:48;6.73;;;4.07;;
74612;SDS011;63119;51.788;8.824;2023-11-21T14:26:14;7.03;;;4.00;;
74612;SDS011;63119;51.788;8.824;2023-11-21T14:28:40;6.95;;;3.85;;
74612;SDS011;63119;51.788;8.824;2023-11-21T14:31:06;7.18;;;4.28;;
74612;SDS011;63119;51.788;8.824;2023-11-21T14:33:32;8.88;;;4.32;;
74612;SDS011;63119;51.788;8.824;2023-11-21T14:35:58;9.85;;;4.63;;
74612;SDS011;63119;51.788;8.824;2023-11-21T14:38:23;7.38;;;4.28;;
74612;SDS011;63119;51.788;8.824;2023-11-21T14:40:49;8.17;;;4.20;;
74612;SDS011;63119;51.788;8.824;2023-11-21T14:43:14;9.32;;;4.22;;
74612;SDS011;63119;51.788;8.824;2023-11-21T14:45:40;8.13;;;5.25;;
74612;SDS011;63119;51.788;8.824;2023-11-21T14:48:06;7.75;;;4.03;;
74612;SDS011;63119;51.788;8.824;2023-11-21T14:50:33;6.82;;;4.40;;
74612;SDS011;63119;51.788;8.824;2023-11-21T14:53:08;6.43;;;3.95;;
74612;SDS011;63119;51.788;8.824;2023-11-21T14:55:35;7.63;;;4.13;;